createdAt,value
2019-03-23T00:02:25.932Z,38.90
2019-03-23T00:04:56.059Z,41.20
2019-03-23T00:07:25.201Z,36.50
2019-03-23T00:09:55.536Z,44.17
2019-03-23T00:12:24.693Z,40.13
2019-03-23T00:14:53.877Z,43.43
2019-03-23T00:17:23.292Z,42.23
2019-03-23T00:19:53.385Z,44.57
2019-03-23T00:22:23.494Z,49.90
2019-03-23T00:24:53.894Z,55.00
2019-03-23T00:27:23.989Z,49.17
2019-03-23T00:29:54.051Z,51.10
2019-03-23T00:32:23.455Z,43.80
2019-03-23T00:34:53.541Z,42.90
2019-03-23T00:37:23.610Z,47.93
2019-03-23T00:39:53.979Z,45.43
2019-03-23T00:42:24.069Z,42.27
2019-03-23T00:44:54.137Z,46.13
2019-03-23T00:47:23.549Z,47.00
2019-03-23T00:49:53.636Z,59.50
2019-03-23T00:52:22.795Z,69.20
2019-03-23T00:54:53.117Z,50.23
2019-03-23T00:57:23.223Z,52.50
2019-03-23T00:59:52.370Z,50.80
2019-03-23T01:02:22.818Z,47.70
2019-03-23T01:04:52.913Z,50.07
2019-03-23T01:07:22.980Z,42.03
2019-03-23T01:09:53.602Z,45.20
2019-03-23T01:12:23.817Z,44.83
2019-03-23T01:14:52.964Z,44.93
2019-03-23T01:17:23.313Z,44.43
2019-03-23T01:19:53.439Z,42.97
2019-03-23T01:22:23.503Z,41.97
2019-03-23T01:24:54.842Z,38.27
2019-03-23T01:27:25.923Z,39.27
2019-03-23T01:29:55.994Z,38.00
2019-03-23T01:32:26.325Z,40.77
2019-03-23T01:34:56.434Z,37.53
2019-03-23T01:37:26.509Z,38.53
2019-03-23T01:39:56.846Z,36.10
2019-03-23T01:42:26.942Z,37.30
2019-03-23T01:44:57.014Z,41.40
2019-03-23T01:47:26.445Z,41.30
2019-03-23T01:49:55.610Z,51.27
2019-03-23T01:52:25.679Z,44.17
2019-03-23T01:54:55.103Z,58.63
2019-03-23T01:57:24.605Z,63.27
2019-03-23T01:59:54.683Z,70.40
2019-03-23T02:02:25.017Z,70.17
2019-03-23T02:04:55.093Z,80.73
2019-03-23T02:07:25.265Z,73.53
2019-03-23T02:09:55.593Z,90.17
2019-03-23T02:12:24.770Z,98.30
2019-03-23T02:14:54.825Z,90.37
2019-03-23T02:17:25.148Z,97.40
2019-03-23T02:19:55.275Z,105.63
2019-03-23T02:22:25.334Z,103.30
2019-03-23T02:24:54.761Z,104.47
2019-03-23T02:27:24.852Z,113.57
2019-03-23T02:29:54.989Z,121.43
2019-03-23T02:32:25.329Z,124.77
2019-03-23T02:34:54.509Z,130.87
2019-03-23T02:37:28.023Z,132.83
2019-03-23T02:39:56.317Z,144.10
2019-03-23T02:42:26.421Z,157.63
2019-03-23T02:44:55.842Z,158.30
2019-03-23T02:47:25.910Z,158.93
2019-03-23T02:49:55.989Z,174.60
2019-03-23T02:52:26.135Z,158.00
2019-03-23T02:54:56.201Z,151.37
2019-03-23T02:57:25.653Z,167.50
2019-03-23T02:59:55.766Z,177.63
2019-03-23T03:02:24.917Z,171.07
2019-03-23T03:04:54.361Z,199.70
2019-03-23T03:07:23.532Z,175.70
2019-03-23T03:09:53.607Z,149.17
2019-03-23T03:12:23.977Z,156.47
2019-03-23T03:14:54.032Z,135.53
2019-03-23T03:17:24.109Z,153.50
2019-03-23T03:19:54.479Z,182.13
2019-03-23T03:22:24.542Z,160.57
2019-03-23T03:24:53.699Z,157.90
2019-03-23T03:27:24.058Z,159.63
2019-03-23T03:29:54.141Z,160.67
2019-03-23T03:32:25.094Z,154.70
2019-03-23T03:34:56.432Z,163.50
2019-03-23T03:37:26.495Z,164.50
2019-03-23T03:39:56.557Z,160.47
2019-03-23T03:42:26.924Z,168.80
2019-03-23T03:44:56.074Z,159.30
2019-03-23T03:47:26.176Z,166.47
2019-03-23T03:49:56.546Z,165.07
2019-03-23T03:52:26.602Z,162.43
2019-03-23T03:54:56.901Z,162.87
2019-03-23T03:57:27.503Z,180.07
2019-03-23T03:59:57.704Z,179.97
2019-03-23T04:02:27.046Z,189.90
2019-03-23T04:04:57.453Z,196.30
2019-03-23T04:07:27.603Z,181.40
2019-03-23T04:09:57.814Z,214.90
2019-03-23T04:12:28.501Z,199.97
2019-03-23T04:14:58.880Z,219.80
2019-03-23T04:17:28.933Z,210.43
2019-03-23T04:19:59.310Z,214.53
2019-03-23T04:22:29.373Z,245.00
2019-03-23T04:24:58.516Z,215.67
2019-03-23T04:27:28.890Z,197.13
2019-03-23T04:29:58.982Z,213.90
2019-03-23T04:32:29.056Z,192.83
2019-03-23T04:35:00.366Z,230.60
2019-03-23T04:37:30.355Z,210.33
2019-03-23T04:40:00.522Z,209.77
2019-03-23T04:42:29.957Z,217.73
2019-03-23T04:45:00.028Z,229.77
2019-03-23T04:47:30.090Z,208.30
2019-03-23T04:50:00.476Z,199.90
2019-03-23T04:52:30.554Z,196.97
2019-03-23T04:55:00.641Z,217.43
2019-03-23T04:57:30.099Z,213.07
2019-03-23T05:00:00.277Z,218.60
2019-03-23T05:02:30.333Z,215.53
2019-03-23T05:05:00.714Z,205.03
2019-03-23T05:07:30.789Z,212.77
2019-03-23T05:10:00.875Z,201.33
2019-03-23T05:12:30.965Z,214.60
2019-03-23T05:15:00.405Z,215.40
2019-03-23T05:17:30.445Z,205.93
2019-03-23T05:20:00.543Z,212.27
2019-03-23T05:22:30.890Z,201.70
2019-03-23T05:25:00.961Z,199.13
2019-03-23T05:27:30.149Z,197.17
2019-03-23T05:29:59.569Z,197.47
2019-03-23T05:32:29.630Z,206.63
2019-03-23T05:34:59.734Z,198.90
2019-03-23T05:37:30.938Z,183.20
2019-03-23T05:40:01.008Z,189.33
2019-03-23T05:42:31.121Z,178.73
2019-03-23T05:45:00.568Z,198.83
2019-03-23T05:47:30.646Z,172.07
2019-03-23T05:50:00.766Z,185.13
2019-03-23T05:52:32.105Z,169.27
2019-03-23T05:55:02.180Z,179.63
2019-03-23T05:57:32.294Z,176.93
2019-03-23T06:00:02.665Z,167.67
2019-03-23T06:02:32.721Z,184.57
2019-03-23T06:05:01.911Z,171.83
2019-03-23T06:07:32.257Z,174.97
2019-03-23T06:10:02.326Z,195.17
2019-03-23T06:12:32.446Z,172.00
2019-03-23T06:15:02.793Z,178.50
2019-03-23T06:17:32.869Z,167.87
2019-03-23T06:20:02.044Z,175.87
2019-03-23T06:22:32.388Z,162.53
2019-03-23T06:25:02.508Z,180.77
2019-03-23T06:27:32.618Z,166.67
2019-03-23T06:30:03.109Z,164.77
2019-03-23T06:32:34.340Z,152.17
2019-03-23T06:35:04.703Z,164.27
2019-03-23T06:37:36.269Z,157.50
2019-03-23T06:40:08.220Z,147.60
2019-03-23T06:42:38.280Z,152.30
2019-03-23T06:45:09.901Z,148.93
2019-03-23T06:47:40.036Z,159.40
2019-03-23T06:50:09.248Z,163.77
2019-03-23T06:52:39.316Z,181.23
2019-03-23T06:55:09.833Z,175.43
2019-03-23T06:57:40.161Z,181.63
2019-03-23T07:00:10.954Z,171.47
2019-03-23T07:02:41.051Z,165.17
2019-03-23T07:05:11.542Z,191.20
2019-03-23T07:07:41.642Z,187.17
2019-03-23T07:10:11.137Z,183.03
2019-03-23T07:12:41.223Z,168.50
2019-03-23T07:15:19.493Z,176.03
2019-03-23T07:17:47.636Z,183.53
2019-03-23T07:20:17.818Z,165.23
2019-03-23T07:22:46.974Z,189.30
2019-03-23T07:25:17.076Z,195.93
2019-03-23T07:27:46.228Z,193.30
2019-03-23T07:30:16.848Z,207.13
2019-03-23T07:32:46.941Z,213.90
2019-03-23T07:35:16.200Z,191.20
2019-03-23T07:37:46.560Z,204.87
2019-03-23T07:40:16.934Z,196.00
2019-03-23T07:42:47.065Z,188.83
2019-03-23T07:45:17.889Z,197.90
2019-03-23T07:47:47.402Z,187.63
2019-03-23T07:50:16.564Z,192.63
2019-03-23T07:52:46.905Z,185.30
2019-03-23T07:55:16.185Z,178.37
2019-03-23T07:57:46.254Z,175.60
2019-03-23T08:00:16.629Z,167.43
2019-03-23T08:02:46.947Z,165.87
2019-03-23T08:05:16.110Z,163.40
2019-03-23T08:07:46.183Z,145.70
2019-03-23T08:10:35.357Z,151.83
2019-03-23T08:13:05.797Z,162.13
2019-03-23T08:15:36.061Z,145.40
2019-03-23T08:18:05.233Z,147.40
2019-03-23T08:20:35.441Z,138.20
2019-03-23T08:25:38.857Z,104.47
2019-03-23T08:28:08.936Z,109.50
2019-03-23T08:30:39.046Z,91.57
2019-03-23T08:33:09.430Z,99.07
2019-03-23T08:35:39.505Z,98.77
2019-03-23T08:38:09.778Z,89.90
2019-03-23T08:40:40.380Z,84.60
2019-03-23T08:43:09.585Z,85.13
2019-03-23T08:45:38.738Z,93.87
2019-03-23T08:48:09.184Z,99.50
2019-03-23T08:50:39.316Z,91.53
2019-03-23T08:53:09.774Z,97.17
2019-03-23T08:55:39.263Z,92.73
2019-03-23T08:58:09.358Z,91.27
2019-03-23T09:00:39.433Z,94.63
2019-03-23T09:03:09.802Z,100.80
2019-03-23T09:05:39.885Z,87.87
2019-03-23T09:08:09.965Z,91.60
2019-03-23T09:10:42.574Z,90.83
2019-03-23T09:13:12.666Z,94.03
2019-03-23T09:15:41.806Z,80.37
2019-03-23T09:18:11.265Z,87.43
2019-03-23T09:20:41.335Z,84.87
2019-03-23T09:23:11.424Z,85.90
2019-03-23T09:25:41.807Z,83.80
2019-03-23T09:28:11.893Z,85.00
2019-03-23T09:30:42.004Z,87.03
2019-03-23T09:33:12.429Z,82.57
2019-03-23T09:35:41.741Z,88.07
2019-03-23T09:38:11.827Z,80.47
2019-03-23T09:40:42.383Z,87.03
2019-03-23T09:43:12.494Z,82.47
2019-03-23T09:45:43.427Z,80.77
2019-03-23T09:48:12.885Z,76.57
2019-03-23T09:50:42.025Z,77.83
2019-03-23T09:53:12.111Z,80.43
2019-03-23T09:55:42.255Z,79.57
2019-03-23T09:58:11.405Z,90.40
2019-03-23T10:00:41.866Z,76.33
2019-03-23T10:03:12.026Z,79.87
2019-03-23T10:05:42.131Z,78.03
2019-03-23T10:08:11.661Z,76.27
2019-03-23T10:10:41.849Z,76.60
2019-03-23T10:13:11.024Z,86.67
2019-03-23T10:15:40.558Z,78.10
2019-03-23T10:18:10.677Z,77.30
2019-03-23T10:20:40.762Z,82.77
2019-03-23T10:23:11.544Z,95.77
2019-03-23T10:25:41.660Z,89.20
2019-03-23T10:28:11.778Z,96.17
2019-03-23T10:30:41.853Z,81.30
2019-03-23T10:33:12.310Z,77.67
2019-03-23T10:35:41.468Z,77.80
2019-03-23T10:38:10.627Z,78.13
2019-03-23T10:40:42.872Z,83.97
2019-03-23T10:43:12.474Z,84.63
2019-03-23T10:45:44.317Z,87.70
2019-03-23T10:48:13.742Z,85.30
2019-03-23T10:50:43.879Z,87.83
2019-03-23T10:53:15.625Z,79.20
2019-03-23T10:55:45.144Z,87.77
2019-03-23T10:58:15.226Z,85.20
2019-03-23T11:00:44.402Z,90.90
2019-03-23T11:03:14.897Z,93.17
2019-03-23T11:05:45.136Z,90.87
2019-03-23T11:08:15.232Z,96.60
2019-03-23T11:10:44.465Z,91.67
2019-03-23T11:13:13.711Z,89.47
2019-03-23T11:15:44.566Z,105.63
2019-03-23T11:18:14.695Z,93.87
2019-03-23T11:20:44.883Z,98.40
2019-03-23T11:23:14.514Z,86.87
2019-03-23T11:25:43.709Z,88.17
2019-03-23T11:28:13.069Z,88.43
2019-03-23T11:30:42.618Z,89.40
2019-03-23T11:33:12.729Z,90.43
2019-03-23T11:35:42.830Z,91.87
2019-03-23T11:38:13.339Z,97.70
2019-03-23T11:40:52.697Z,88.80
2019-03-23T11:43:13.706Z,97.13
2019-03-23T11:45:43.187Z,93.03
2019-03-23T11:48:13.457Z,92.57
2019-03-23T11:50:45.317Z,89.53
2019-03-23T11:53:15.917Z,83.00
2019-03-23T11:55:45.346Z,68.63
2019-03-23T11:58:15.582Z,69.13
2019-03-23T12:00:47.237Z,78.87
2019-03-23T12:05:48.248Z,60.87
2019-03-23T12:08:18.900Z,72.67
2019-03-23T12:10:49.350Z,65.63
2019-03-23T12:13:19.474Z,67.17
2019-03-23T12:15:50.083Z,65.93
2019-03-23T12:18:19.297Z,65.37
2019-03-23T12:20:49.737Z,56.70
2019-03-23T12:23:22.247Z,64.73
2019-03-23T12:25:52.622Z,72.17
2019-03-23T12:28:21.853Z,64.33
2019-03-23T12:30:52.049Z,61.70
2019-03-23T12:33:23.958Z,55.33
2019-03-23T12:35:54.483Z,51.83
2019-03-23T12:38:24.583Z,58.10
2019-03-23T12:40:54.743Z,59.77
2019-03-23T12:43:25.405Z,56.83
2019-03-23T12:45:55.734Z,53.43
2019-03-23T12:48:24.921Z,58.47
2019-03-23T12:51:01.646Z,54.70
2019-03-23T12:53:31.697Z,49.37
2019-03-23T12:56:01.857Z,52.80
2019-03-23T12:58:32.586Z,53.93
2019-03-23T13:01:02.741Z,52.87
2019-03-23T13:03:32.822Z,58.80
2019-03-23T13:06:02.945Z,53.00
2019-03-23T13:08:32.089Z,56.87
2019-03-23T13:11:02.521Z,55.63
2019-03-23T13:13:32.820Z,56.43
2019-03-23T13:16:02.956Z,56.73
2019-03-23T13:18:33.344Z,56.60
2019-03-23T13:21:03.480Z,56.37
2019-03-23T13:23:32.676Z,57.03
2019-03-23T13:26:03.044Z,59.00
2019-03-23T13:28:33.175Z,55.23
2019-03-23T13:31:09.674Z,55.90
2019-03-23T13:33:40.174Z,58.23
2019-03-23T13:36:10.805Z,55.03
2019-03-23T13:38:40.313Z,57.07
2019-03-23T13:41:10.758Z,56.87
2019-03-23T13:43:42.761Z,54.73
2019-03-23T13:46:12.847Z,56.87
2019-03-23T13:48:44.305Z,55.67
2019-03-23T13:51:15.065Z,56.93
2019-03-23T13:53:45.250Z,63.47
2019-03-23T13:56:18.213Z,67.87
2019-03-23T13:58:47.434Z,61.10
2019-03-23T14:01:17.581Z,58.57
2019-03-23T14:03:48.403Z,67.10
2019-03-23T14:06:18.506Z,65.73
2019-03-23T14:08:49.013Z,73.80
2019-03-23T14:11:18.632Z,66.37
2019-03-23T14:13:47.851Z,69.47
2019-03-23T14:16:17.926Z,63.97
2019-03-23T14:18:48.377Z,70.07
2019-03-23T14:21:17.638Z,72.80
2019-03-23T14:23:46.809Z,66.70
2019-03-23T14:26:16.022Z,72.47
2019-03-23T14:28:46.178Z,71.73
2019-03-23T14:31:16.313Z,68.57
2019-03-23T14:33:45.829Z,70.93
2019-03-23T14:36:15.925Z,64.40
2019-03-23T14:38:46.017Z,66.13
2019-03-23T14:41:16.588Z,71.47
2019-03-23T14:43:46.782Z,63.03
2019-03-23T14:46:16.994Z,69.23
2019-03-23T14:48:48.538Z,64.73
2019-03-23T14:51:18.674Z,65.53
2019-03-23T14:53:47.885Z,70.73
2019-03-23T14:56:20.095Z,68.33
2019-03-23T14:58:50.273Z,64.70
2019-03-23T15:01:19.430Z,73.10
2019-03-23T15:03:49.882Z,75.10
2019-03-23T15:06:21.943Z,73.37
2019-03-23T15:08:51.972Z,69.67
2019-03-23T15:11:21.518Z,73.70
2019-03-23T15:13:50.667Z,71.40
2019-03-23T15:16:20.820Z,63.83
2019-03-23T15:18:51.466Z,64.13
2019-03-23T15:21:21.577Z,67.10
2019-03-23T15:23:51.661Z,65.70
2019-03-23T15:26:22.189Z,64.03
2019-03-23T15:28:51.340Z,74.03
2019-03-23T15:31:21.438Z,68.67
2019-03-23T15:33:55.048Z,68.90
2019-03-23T15:36:24.204Z,69.17
2019-03-23T15:38:54.279Z,69.57
2019-03-23T15:41:24.831Z,68.50
2019-03-23T15:43:54.128Z,63.47
2019-03-23T15:46:23.289Z,65.87
2019-03-23T15:48:53.898Z,65.70
2019-03-23T15:51:24.727Z,64.60
2019-03-23T15:56:26.613Z,65.40
2019-03-23T15:58:56.874Z,60.20
2019-03-23T16:01:28.357Z,63.20
2019-03-23T16:03:57.551Z,62.67
2019-03-23T16:06:27.769Z,63.70
2019-03-23T16:08:58.500Z,63.23
2019-03-23T16:11:28.850Z,64.77
2019-03-23T16:13:57.997Z,69.33
2019-03-23T16:16:28.420Z,60.63
2019-03-23T16:18:57.608Z,68.93
2019-03-23T16:21:27.740Z,66.13
2019-03-23T16:23:57.178Z,70.23
2019-03-23T16:26:27.286Z,65.57
2019-03-23T16:28:57.382Z,61.77
2019-03-23T16:31:27.478Z,66.17
2019-03-23T16:33:57.710Z,64.63
2019-03-23T16:36:27.797Z,65.03
2019-03-23T16:38:57.229Z,70.57
2019-03-23T16:41:37.895Z,65.83
2019-03-23T16:44:08.246Z,69.40
2019-03-23T16:46:38.706Z,81.27
2019-03-23T16:49:07.898Z,78.23
2019-03-23T16:51:38.401Z,73.87
2019-03-23T16:54:09.654Z,78.50
2019-03-23T16:56:41.058Z,74.10
2019-03-23T16:59:11.166Z,80.10
2019-03-23T17:01:44.085Z,77.47
2019-03-23T17:04:16.443Z,85.63
2019-03-23T17:06:46.760Z,79.90
2019-03-23T17:09:17.830Z,81.60
2019-03-23T17:11:48.142Z,79.10
2019-03-23T17:14:20.364Z,86.53
2019-03-23T17:16:51.155Z,81.13
2019-03-23T17:21:53.233Z,82.53
2019-03-23T17:24:22.436Z,86.90
2019-03-23T17:29:24.273Z,86.17
2019-03-23T17:31:57.710Z,87.17
2019-03-23T17:34:28.479Z,89.77
2019-03-23T17:36:59.833Z,95.63
2019-03-23T17:39:30.700Z,90.50
2019-03-23T17:42:01.969Z,89.83
2019-03-23T17:44:32.245Z,89.73
2019-03-23T17:47:03.880Z,95.50
2019-03-23T17:49:42.412Z,96.40
2019-03-23T17:52:12.669Z,91.90
2019-03-23T17:54:43.333Z,89.67
2019-03-23T17:57:15.656Z,92.93
2019-03-23T17:59:46.680Z,104.83
2019-03-23T18:02:19.894Z,94.47
2019-03-23T18:04:50.409Z,97.33
2019-03-23T18:07:21.641Z,117.93
2019-03-23T18:09:50.799Z,94.50
2019-03-23T18:12:22.352Z,100.00
2019-03-23T18:14:52.495Z,100.03
2019-03-23T18:17:21.620Z,99.67
2019-03-23T18:19:54.986Z,103.83
2019-03-23T18:22:25.386Z,97.50
2019-03-23T18:24:55.470Z,90.30
2019-03-23T18:27:25.638Z,96.53
2019-03-23T18:29:55.875Z,91.90
2019-03-23T18:32:26.402Z,93.43
2019-03-23T18:34:55.667Z,97.17
2019-03-23T18:37:25.842Z,101.80
2019-03-23T18:39:55.948Z,94.87
2019-03-23T18:42:25.180Z,101.03
2019-03-23T18:44:55.378Z,102.03
2019-03-23T18:47:25.934Z,106.83
2019-03-23T18:49:55.253Z,103.23
2019-03-23T18:52:24.439Z,99.03
2019-03-23T18:54:54.797Z,101.23
2019-03-23T18:57:24.923Z,103.80
2019-03-23T18:59:54.078Z,97.17
2019-03-23T19:02:23.647Z,106.97
2019-03-23T19:04:53.799Z,104.87
2019-03-23T19:07:23.846Z,103.43
2019-03-23T19:09:55.158Z,102.90
2019-03-23T19:12:25.309Z,101.83
2019-03-23T19:14:54.453Z,100.87
2019-03-23T19:17:23.953Z,102.40
2019-03-23T19:19:54.054Z,98.10
2019-03-23T19:22:23.214Z,102.97
2019-03-23T19:24:53.793Z,106.50
2019-03-23T19:27:23.949Z,107.07
2019-03-23T19:29:54.250Z,102.03
2019-03-23T19:32:26.630Z,107.70
2019-03-23T19:34:55.866Z,144.77
2019-03-23T19:37:25.230Z,116.47
2019-03-23T19:39:55.590Z,107.47
2019-03-23T19:42:25.740Z,105.87
2019-03-23T19:44:55.795Z,132.97
2019-03-23T19:47:25.905Z,137.07
2019-03-23T19:49:56.000Z,131.13
2019-03-23T19:52:26.103Z,131.53
2019-03-23T19:54:55.293Z,116.80
2019-03-23T19:57:25.422Z,114.30
2019-03-23T19:59:54.597Z,105.40
2019-03-23T20:02:24.953Z,108.33
2019-03-23T20:04:55.206Z,103.50
2019-03-23T20:07:33.364Z,116.73
2019-03-23T20:10:01.886Z,112.97
2019-03-23T20:12:31.965Z,113.63
2019-03-23T20:15:04.092Z,113.53
2019-03-23T20:17:33.880Z,93.70
2019-03-23T20:20:06.177Z,101.17
2019-03-23T20:22:36.590Z,110.47
2019-03-23T20:25:07.662Z,109.63
2019-03-23T20:27:37.826Z,99.43
2019-03-23T20:30:13.688Z,114.00
2019-03-23T20:32:43.834Z,107.40
2019-03-23T20:35:14.086Z,101.40
2019-03-23T20:37:43.370Z,107.93
2019-03-23T20:40:14.162Z,110.17
2019-03-23T20:42:43.972Z,107.17
2019-03-23T20:45:18.158Z,97.37
2019-03-23T20:47:47.397Z,108.23
2019-03-23T20:50:18.626Z,107.57
2019-03-23T20:52:48.955Z,111.23
2019-03-23T20:55:29.933Z,103.93
2019-03-23T20:58:02.136Z,110.20
2019-03-23T21:00:32.657Z,99.53
2019-03-23T21:03:01.971Z,107.67
2019-03-23T21:05:34.271Z,116.90
2019-03-23T21:08:02.285Z,108.30
2019-03-23T21:10:34.124Z,104.07
2019-03-23T21:13:04.708Z,106.80
2019-03-23T21:15:38.163Z,106.37
2019-03-23T21:18:08.382Z,105.33
2019-03-23T21:20:37.649Z,102.83
2019-03-23T21:23:07.019Z,104.73
2019-03-23T21:25:38.423Z,106.90
2019-03-23T21:28:08.529Z,107.83
2019-03-23T21:30:38.673Z,105.43
2019-03-23T21:33:08.860Z,109.40
2019-03-23T21:35:38.678Z,105.60
2019-03-23T21:38:10.137Z,109.17
2019-03-23T21:40:40.126Z,119.47
2019-03-23T21:43:11.392Z,112.67
2019-03-23T21:45:40.916Z,111.90
2019-03-23T21:48:12.193Z,118.60
2019-03-23T21:50:47.451Z,107.60
2019-03-23T21:53:13.901Z,116.53
2019-03-23T21:55:44.092Z,115.40
2019-03-23T21:58:14.778Z,117.20
2019-03-23T22:00:47.366Z,110.00
2019-03-23T22:03:21.749Z,122.00
2019-03-23T22:05:51.684Z,118.23
2019-03-23T22:08:20.945Z,117.87
2019-03-23T22:10:50.381Z,120.40
2019-03-23T22:13:20.818Z,123.60
2019-03-23T22:15:51.137Z,125.13
2019-03-23T22:18:21.292Z,118.63
2019-03-23T22:20:53.616Z,113.70
2019-03-23T22:23:22.748Z,119.73
2019-03-23T22:25:52.835Z,130.10
2019-03-23T22:28:27.617Z,121.20
2019-03-23T22:30:57.712Z,131.27
2019-03-23T22:33:26.978Z,132.73
2019-03-23T22:35:57.787Z,135.20
2019-03-23T22:38:28.284Z,133.73
2019-03-23T22:40:58.487Z,140.97
2019-03-23T22:43:29.359Z,131.77
2019-03-23T22:45:59.691Z,131.40
2019-03-23T22:48:31.069Z,144.90
2019-03-23T22:51:01.061Z,171.17
2019-03-23T22:53:30.369Z,146.93
2019-03-23T22:56:00.823Z,149.17
2019-03-23T22:58:32.442Z,138.33
2019-03-23T23:01:02.610Z,143.83
2019-03-23T23:03:32.759Z,137.70
2019-03-23T23:06:03.424Z,136.07
2019-03-23T23:08:33.544Z,140.00
2019-03-23T23:11:03.649Z,135.47
2019-03-23T23:13:33.169Z,140.87
2019-03-23T23:16:03.249Z,132.47
2019-03-23T23:18:33.338Z,133.47
2019-03-23T23:21:05.793Z,127.57
2019-03-23T23:23:36.034Z,132.53
2019-03-23T23:26:06.279Z,131.70
2019-03-23T23:28:37.940Z,130.33
2019-03-23T23:31:08.490Z,121.87
2019-03-23T23:33:38.690Z,132.13
2019-03-23T23:36:08.897Z,116.20
2019-03-23T23:38:38.399Z,109.03
2019-03-23T23:41:08.495Z,101.33
2019-03-23T23:43:38.700Z,108.27
2019-03-23T23:46:08.792Z,94.17
2019-03-23T23:48:50.869Z,89.80
2019-03-23T23:51:12.870Z,94.83
2019-03-23T23:53:42.937Z,86.37
2019-03-23T23:56:13.033Z,86.03
2019-03-23T23:58:43.440Z,82.60
